sensor_id;sensor_type;location;lat;lon;timestamp;P1;durP1;ratioP1;P2;durP2;ratioP2
76675;SDS011;69204;55.350;36.906;2023-09-19T00:09:12;62.78;;;20.13;;
76675;SDS011;69204;55.350;36.906;2023-09-19T00:14:13;54.97;;;17.83;;
76675;SDS011;69204;55.350;36.906;2023-09-19T00:19:14;60.72;;;18.50;;
76675;SDS011;69204;55.350;36.906;2023-09-19T00:24:16;66.15;;;19.13;;
76675;SDS011;69204;55.350;36.906;2023-09-19T00:29:17;64.18;;;22.23;;
76675;SDS011;69204;55.350;36.906;2023-09-19T00:34:19;67.68;;;22.20;;
76675;SDS011;69204;55.350;36.906;2023-09-19T00:39:20;86.23;;;24.67;;
76675;SDS011;69204;55.350;36.906;2023-09-19T00:44:22;67.85;;;24.77;;
76675;SDS011;69204;55.350;36.906;2023-09-19T00:49:23;60.90;;;23.05;;
76675;SDS011;69204;55.350;36.906;2023-09-19T00:54:26;66.30;;;23.15;;
76675;SDS011;69204;55.350;36.906;2023-09-19T00:59:28;66.65;;;24.42;;
76675;SDS011;69204;55.350;36.906;2023-09-19T01:04:30;65.43;;;24.23;;
76675;SDS011;69204;55.350;36.906;2023-09-19T01:09:31;65.25;;;24.08;;
76675;SDS011;69204;55.350;36.906;2023-09-19T01:20:03;72.05;;;26.17;;
76675;SDS011;69204;55.350;36.906;2023-09-19T01:25:33;72.85;;;26.38;;
76675;SDS011;69204;55.350;36.906;2023-09-19T01:30:56;70.33;;;27.63;;
76675;SDS011;69204;55.350;36.906;2023-09-19T01:35:59;83.18;;;29.23;;
76675;SDS011;69204;55.350;36.906;2023-09-19T01:41:26;84.30;;;28.67;;
76675;SDS011;69204;55.350;36.906;2023-09-19T01:46:33;90.82;;;31.23;;
76675;SDS011;69204;55.350;36.906;2023-09-19T02:01:51;73.18;;;26.27;;
76675;SDS011;69204;55.350;36.906;2023-09-19T02:06:53;81.38;;;28.08;;
76675;SDS011;69204;55.350;36.906;2023-09-19T02:11:54;92.32;;;29.75;;
76675;SDS011;69204;55.350;36.906;2023-09-19T02:16:56;90.40;;;28.70;;
76675;SDS011;69204;55.350;36.906;2023-09-19T02:21:57;94.80;;;28.83;;
76675;SDS011;69204;55.350;36.906;2023-09-19T02:26:57;91.03;;;29.35;;
76675;SDS011;69204;55.350;36.906;2023-09-19T02:32:00;91.53;;;27.97;;
76675;SDS011;69204;55.350;36.906;2023-09-19T02:37:03;91.22;;;27.33;;
76675;SDS011;69204;55.350;36.906;2023-09-19T02:42:08;91.40;;;27.70;;
76675;SDS011;69204;55.350;36.906;2023-09-19T02:47:09;74.03;;;25.58;;
76675;SDS011;69204;55.350;36.906;2023-09-19T02:52:10;85.27;;;26.93;;
76675;SDS011;69204;55.350;36.906;2023-09-19T02:57:11;92.88;;;28.30;;
76675;SDS011;69204;55.350;36.906;2023-09-19T03:02:14;78.70;;;27.33;;
76675;SDS011;69204;55.350;36.906;2023-09-19T03:07:16;90.95;;;27.02;;
76675;SDS011;69204;55.350;36.906;2023-09-19T03:12:17;85.25;;;28.45;;
76675;SDS011;69204;55.350;36.906;2023-09-19T03:17:18;71.77;;;27.03;;
76675;SDS011;69204;55.350;36.906;2023-09-19T03:22:20;74.18;;;24.90;;
76675;SDS011;69204;55.350;36.906;2023-09-19T03:27:21;66.50;;;25.57;;
76675;SDS011;69204;55.350;36.906;2023-09-19T03:32:22;65.43;;;24.92;;
76675;SDS011;69204;55.350;36.906;2023-09-19T03:37:23;61.10;;;25.27;;
76675;SDS011;69204;55.350;36.906;2023-09-19T03:42:24;61.53;;;25.25;;
76675;SDS011;69204;55.350;36.906;2023-09-19T03:47:26;65.80;;;24.35;;
76675;SDS011;69204;55.350;36.906;2023-09-19T03:52:27;55.67;;;23.97;;
76675;SDS011;69204;55.350;36.906;2023-09-19T03:57:28;65.03;;;24.07;;
76675;SDS011;69204;55.350;36.906;2023-09-19T04:02:28;66.95;;;23.95;;
76675;SDS011;69204;55.350;36.906;2023-09-19T04:07:33;62.90;;;24.25;;
76675;SDS011;69204;55.350;36.906;2023-09-19T04:12:35;63.25;;;23.48;;
76675;SDS011;69204;55.350;36.906;2023-09-19T04:17:36;66.22;;;24.42;;
76675;SDS011;69204;55.350;36.906;2023-09-19T04:22:36;54.00;;;22.87;;
76675;SDS011;69204;55.350;36.906;2023-09-19T04:27:37;50.13;;;21.48;;
76675;SDS011;69204;55.350;36.906;2023-09-19T04:32:38;43.70;;;19.37;;
76675;SDS011;69204;55.350;36.906;2023-09-19T04:37:40;33.00;;;17.40;;
76675;SDS011;69204;55.350;36.906;2023-09-19T04:42:42;39.10;;;19.50;;
76675;SDS011;69204;55.350;36.906;2023-09-19T04:47:42;47.58;;;23.75;;
76675;SDS011;69204;55.350;36.906;2023-09-19T04:52:44;41.93;;;21.87;;
76675;SDS011;69204;55.350;36.906;2023-09-19T04:57:49;43.85;;;20.67;;
76675;SDS011;69204;55.350;36.906;2023-09-19T05:02:51;34.65;;;17.63;;
76675;SDS011;69204;55.350;36.906;2023-09-19T05:07:52;37.63;;;18.70;;
76675;SDS011;69204;55.350;36.906;2023-09-19T05:12:56;33.92;;;19.33;;
76675;SDS011;69204;55.350;36.906;2023-09-19T05:17:57;35.30;;;19.40;;
76675;SDS011;69204;55.350;36.906;2023-09-19T05:23:01;33.35;;;18.30;;
76675;SDS011;69204;55.350;36.906;2023-09-19T05:28:03;33.58;;;17.35;;
76675;SDS011;69204;55.350;36.906;2023-09-19T05:33:06;35.67;;;17.65;;
76675;SDS011;69204;55.350;36.906;2023-09-19T05:38:08;33.95;;;18.15;;
76675;SDS011;69204;55.350;36.906;2023-09-19T05:43:10;29.43;;;16.80;;
76675;SDS011;69204;55.350;36.906;2023-09-19T05:48:11;33.33;;;17.65;;
76675;SDS011;69204;55.350;36.906;2023-09-19T05:53:16;28.43;;;16.57;;
76675;SDS011;69204;55.350;36.906;2023-09-19T05:58:18;29.40;;;16.05;;
76675;SDS011;69204;55.350;36.906;2023-09-19T06:03:20;27.75;;;15.25;;
76675;SDS011;69204;55.350;36.906;2023-09-19T06:08:21;29.17;;;14.30;;
76675;SDS011;69204;55.350;36.906;2023-09-19T06:13:22;26.38;;;15.65;;
76675;SDS011;69204;55.350;36.906;2023-09-19T06:18:23;22.77;;;12.83;;
76675;SDS011;69204;55.350;36.906;2023-09-19T06:23:26;23.75;;;12.77;;
76675;SDS011;69204;55.350;36.906;2023-09-19T06:28:29;20.17;;;12.60;;
76675;SDS011;69204;55.350;36.906;2023-09-19T06:33:30;23.15;;;12.77;;
76675;SDS011;69204;55.350;36.906;2023-09-19T06:38:31;24.13;;;11.93;;
76675;SDS011;69204;55.350;36.906;2023-09-19T06:43:34;24.33;;;12.47;;
76675;SDS011;69204;55.350;36.906;2023-09-19T06:48:35;19.67;;;11.20;;
76675;SDS011;69204;55.350;36.906;2023-09-19T06:53:36;18.13;;;10.93;;
76675;SDS011;69204;55.350;36.906;2023-09-19T06:58:37;20.05;;;10.50;;
76675;SDS011;69204;55.350;36.906;2023-09-19T07:03:38;19.40;;;10.77;;
76675;SDS011;69204;55.350;36.906;2023-09-19T07:08:40;20.80;;;11.43;;
76675;SDS011;69204;55.350;36.906;2023-09-19T07:13:41;16.53;;;10.30;;
76675;SDS011;69204;55.350;36.906;2023-09-19T07:18:42;19.20;;;10.25;;
76675;SDS011;69204;55.350;36.906;2023-09-19T07:23:44;16.37;;;9.67;;
76675;SDS011;69204;55.350;36.906;2023-09-19T07:28:45;16.33;;;10.77;;
76675;SDS011;69204;55.350;36.906;2023-09-19T07:33:46;18.67;;;9.50;;
76675;SDS011;69204;55.350;36.906;2023-09-19T07:38:47;15.82;;;9.65;;
76675;SDS011;69204;55.350;36.906;2023-09-19T07:43:48;19.00;;;9.23;;
76675;SDS011;69204;55.350;36.906;2023-09-19T07:48:49;13.45;;;8.85;;
76675;SDS011;69204;55.350;36.906;2023-09-19T07:53:50;13.77;;;9.20;;
76675;SDS011;69204;55.350;36.906;2023-09-19T07:58:51;14.63;;;8.75;;
76675;SDS011;69204;55.350;36.906;2023-09-19T08:03:52;15.87;;;9.33;;
76675;SDS011;69204;55.350;36.906;2023-09-19T08:08:53;16.85;;;9.02;;
76675;SDS011;69204;55.350;36.906;2023-09-19T08:13:55;17.17;;;9.20;;
76675;SDS011;69204;55.350;36.906;2023-09-19T08:18:56;13.67;;;8.37;;
76675;SDS011;69204;55.350;36.906;2023-09-19T08:23:57;15.07;;;8.77;;
76675;SDS011;69204;55.350;36.906;2023-09-19T08:28:58;13.20;;;8.60;;
76675;SDS011;69204;55.350;36.906;2023-09-19T08:34:05;15.48;;;8.23;;
76675;SDS011;69204;55.350;36.906;2023-09-19T08:39:06;12.65;;;8.18;;
76675;SDS011;69204;55.350;36.906;2023-09-19T08:44:07;13.87;;;8.17;;
76675;SDS011;69204;55.350;36.906;2023-09-19T08:49:13;13.00;;;7.95;;
76675;SDS011;69204;55.350;36.906;2023-09-19T08:54:35;11.90;;;8.10;;
76675;SDS011;69204;55.350;36.906;2023-09-19T08:59:41;18.85;;;8.75;;
76675;SDS011;69204;55.350;36.906;2023-09-19T09:04:43;10.07;;;7.47;;
76675;SDS011;69204;55.350;36.906;2023-09-19T09:09:45;16.00;;;7.97;;
76675;SDS011;69204;55.350;36.906;2023-09-19T09:14:47;15.23;;;7.93;;
76675;SDS011;69204;55.350;36.906;2023-09-19T09:19:54;16.57;;;8.50;;
76675;SDS011;69204;55.350;36.906;2023-09-19T09:24:55;12.43;;;7.35;;
76675;SDS011;69204;55.350;36.906;2023-09-19T09:30:07;12.55;;;7.30;;
76675;SDS011;69204;55.350;36.906;2023-09-19T09:35:22;13.87;;;7.60;;
76675;SDS011;69204;55.350;36.906;2023-09-19T09:40:27;15.63;;;6.90;;
76675;SDS011;69204;55.350;36.906;2023-09-19T09:51:33;11.93;;;6.85;;
76675;SDS011;69204;55.350;36.906;2023-09-19T09:56:35;13.15;;;7.60;;
76675;SDS011;69204;55.350;36.906;2023-09-19T10:01:54;10.07;;;7.10;;
76675;SDS011;69204;55.350;36.906;2023-09-19T10:06:59;10.90;;;7.15;;
76675;SDS011;69204;55.350;36.906;2023-09-19T10:12:06;14.70;;;7.27;;
76675;SDS011;69204;55.350;36.906;2023-09-19T10:17:12;13.05;;;6.53;;
76675;SDS011;69204;55.350;36.906;2023-09-19T10:22:26;10.93;;;6.18;;
76675;SDS011;69204;55.350;36.906;2023-09-19T10:27:33;11.30;;;7.00;;
76675;SDS011;69204;55.350;36.906;2023-09-19T10:32:39;11.50;;;6.53;;
76675;SDS011;69204;55.350;36.906;2023-09-19T10:37:47;11.00;;;6.83;;
76675;SDS011;69204;55.350;36.906;2023-09-19T10:42:53;12.73;;;6.45;;
76675;SDS011;69204;55.350;36.906;2023-09-19T10:47:55;10.18;;;6.35;;
76675;SDS011;69204;55.350;36.906;2023-09-19T10:52:59;12.17;;;6.77;;
76675;SDS011;69204;55.350;36.906;2023-09-19T10:58:11;11.25;;;6.70;;
76675;SDS011;69204;55.350;36.906;2023-09-19T11:03:16;10.57;;;6.17;;
76675;SDS011;69204;55.350;36.906;2023-09-19T11:08:24;10.43;;;6.50;;
76675;SDS011;69204;55.350;36.906;2023-09-19T11:13:34;11.88;;;7.07;;
76675;SDS011;69204;55.350;36.906;2023-09-19T11:23:51;13.73;;;8.20;;
76675;SDS011;69204;55.350;36.906;2023-09-19T11:30:30;10.23;;;6.87;;
76675;SDS011;69204;55.350;36.906;2023-09-19T11:46:24;12.17;;;5.53;;
76675;SDS011;69204;55.350;36.906;2023-09-19T11:51:45;9.52;;;5.78;;
76675;SDS011;69204;55.350;36.906;2023-09-19T11:56:54;15.70;;;6.20;;
76675;SDS011;69204;55.350;36.906;2023-09-19T12:02:06;10.10;;;5.20;;
76675;SDS011;69204;55.350;36.906;2023-09-19T12:07:12;9.52;;;5.70;;
76675;SDS011;69204;55.350;36.906;2023-09-19T12:23:13;10.93;;;5.33;;
76675;SDS011;69204;55.350;36.906;2023-09-19T12:28:16;10.75;;;6.25;;
76675;SDS011;69204;55.350;36.906;2023-09-19T12:33:23;11.73;;;5.65;;
76675;SDS011;69204;55.350;36.906;2023-09-19T12:38:27;10.07;;;5.90;;
76675;SDS011;69204;55.350;36.906;2023-09-19T12:43:29;18.42;;;7.50;;
76675;SDS011;69204;55.350;36.906;2023-09-19T12:48:33;15.47;;;8.00;;
76675;SDS011;69204;55.350;36.906;2023-09-19T12:53:41;11.73;;;6.20;;
76675;SDS011;69204;55.350;36.906;2023-09-19T12:58:52;11.20;;;6.35;;
76675;SDS011;69204;55.350;36.906;2023-09-19T13:10:02;14.32;;;6.45;;
76675;SDS011;69204;55.350;36.906;2023-09-19T13:15:12;14.10;;;6.57;;
76675;SDS011;69204;55.350;36.906;2023-09-19T13:25:27;10.57;;;6.47;;
76675;SDS011;69204;55.350;36.906;2023-09-19T13:30:32;10.43;;;7.00;;
76675;SDS011;69204;55.350;36.906;2023-09-19T13:35:51;12.40;;;6.82;;
76675;SDS011;69204;55.350;36.906;2023-09-19T13:40:58;13.07;;;6.70;;
76675;SDS011;69204;55.350;36.906;2023-09-19T13:46:03;9.40;;;6.38;;
76675;SDS011;69204;55.350;36.906;2023-09-19T13:51:05;10.80;;;6.55;;
76675;SDS011;69204;55.350;36.906;2023-09-19T13:56:25;11.80;;;5.93;;
76675;SDS011;69204;55.350;36.906;2023-09-19T14:01:34;11.50;;;6.93;;
76675;SDS011;69204;55.350;36.906;2023-09-19T14:06:35;13.67;;;6.70;;
76675;SDS011;69204;55.350;36.906;2023-09-19T14:11:37;10.07;;;6.55;;
76675;SDS011;69204;55.350;36.906;2023-09-19T14:16:39;10.88;;;7.28;;
76675;SDS011;69204;55.350;36.906;2023-09-19T14:21:42;9.70;;;6.23;;
76675;SDS011;69204;55.350;36.906;2023-09-19T14:26:46;13.25;;;6.80;;
76675;SDS011;69204;55.350;36.906;2023-09-19T14:31:51;11.83;;;7.27;;
76675;SDS011;69204;55.350;36.906;2023-09-19T14:36:52;11.48;;;6.88;;
76675;SDS011;69204;55.350;36.906;2023-09-19T14:41:54;11.77;;;7.45;;
76675;SDS011;69204;55.350;36.906;2023-09-19T14:46:55;14.23;;;7.50;;
76675;SDS011;69204;55.350;36.906;2023-09-19T14:51:56;12.35;;;7.30;;
76675;SDS011;69204;55.350;36.906;2023-09-19T14:56:58;12.33;;;7.77;;
76675;SDS011;69204;55.350;36.906;2023-09-19T15:02:04;13.70;;;8.43;;
76675;SDS011;69204;55.350;36.906;2023-09-19T15:07:05;13.07;;;8.60;;
76675;SDS011;69204;55.350;36.906;2023-09-19T15:12:06;18.30;;;10.40;;
76675;SDS011;69204;55.350;36.906;2023-09-19T15:17:07;16.05;;;9.85;;
76675;SDS011;69204;55.350;36.906;2023-09-19T15:22:09;16.90;;;10.13;;
76675;SDS011;69204;55.350;36.906;2023-09-19T15:27:11;18.42;;;11.10;;
76675;SDS011;69204;55.350;36.906;2023-09-19T15:32:14;27.50;;;16.77;;
76675;SDS011;69204;55.350;36.906;2023-09-19T15:37:16;24.88;;;14.82;;
76675;SDS011;69204;55.350;36.906;2023-09-19T15:42:17;19.27;;;11.23;;
76675;SDS011;69204;55.350;36.906;2023-09-19T15:47:20;18.57;;;11.53;;
76675;SDS011;69204;55.350;36.906;2023-09-19T15:52:21;24.52;;;14.75;;
76675;SDS011;69204;55.350;36.906;2023-09-19T15:57:26;23.43;;;13.57;;
76675;SDS011;69204;55.350;36.906;2023-09-19T16:02:28;19.88;;;12.43;;
76675;SDS011;69204;55.350;36.906;2023-09-19T16:07:32;19.23;;;11.63;;
76675;SDS011;69204;55.350;36.906;2023-09-19T16:12:36;23.13;;;14.80;;
76675;SDS011;69204;55.350;36.906;2023-09-19T16:17:40;22.75;;;15.70;;
76675;SDS011;69204;55.350;36.906;2023-09-19T16:22:41;26.63;;;17.73;;
76675;SDS011;69204;55.350;36.906;2023-09-19T16:27:42;41.17;;;24.65;;
76675;SDS011;69204;55.350;36.906;2023-09-19T16:32:43;84.97;;;42.00;;
76675;SDS011;69204;55.350;36.906;2023-09-19T16:37:44;119.67;;;51.23;;
76675;SDS011;69204;55.350;36.906;2023-09-19T16:42:46;108.20;;;48.05;;
76675;SDS011;69204;55.350;36.906;2023-09-19T16:47:47;114.33;;;53.30;;
76675;SDS011;69204;55.350;36.906;2023-09-19T16:52:48;111.20;;;50.97;;
76675;SDS011;69204;55.350;36.906;2023-09-19T16:57:52;92.20;;;45.58;;
76675;SDS011;69204;55.350;36.906;2023-09-19T17:02:53;77.13;;;39.00;;
76675;SDS011;69204;55.350;36.906;2023-09-19T17:07:57;61.58;;;32.60;;
76675;SDS011;69204;55.350;36.906;2023-09-19T17:13:05;48.47;;;29.37;;
76675;SDS011;69204;55.350;36.906;2023-09-19T17:18:07;43.88;;;26.00;;
76675;SDS011;69204;55.350;36.906;2023-09-19T17:23:08;46.83;;;24.10;;
76675;SDS011;69204;55.350;36.906;2023-09-19T17:28:09;37.20;;;21.23;;
76675;SDS011;69204;55.350;36.906;2023-09-19T17:33:10;39.80;;;21.67;;
76675;SDS011;69204;55.350;36.906;2023-09-19T17:38:12;31.60;;;19.23;;
76675;SDS011;69204;55.350;36.906;2023-09-19T17:43:13;36.95;;;19.05;;
76675;SDS011;69204;55.350;36.906;2023-09-19T17:48:32;29.92;;;16.55;;
76675;SDS011;69204;55.350;36.906;2023-09-19T17:53:33;25.88;;;15.00;;
76675;SDS011;69204;55.350;36.906;2023-09-19T17:58:35;29.95;;;16.30;;
76675;SDS011;69204;55.350;36.906;2023-09-19T18:03:39;30.17;;;16.90;;
76675;SDS011;69204;55.350;36.906;2023-09-19T18:08:44;32.13;;;14.77;;
76675;SDS011;69204;55.350;36.906;2023-09-19T18:13:46;28.57;;;16.10;;
76675;SDS011;69204;55.350;36.906;2023-09-19T18:18:53;32.35;;;18.75;;
76675;SDS011;69204;55.350;36.906;2023-09-19T18:23:59;31.75;;;17.05;;
76675;SDS011;69204;55.350;36.906;2023-09-19T18:29:04;28.03;;;16.33;;
76675;SDS011;69204;55.350;36.906;2023-09-19T18:34:05;30.20;;;18.33;;
76675;SDS011;69204;55.350;36.906;2023-09-19T18:39:09;37.67;;;23.10;;
76675;SDS011;69204;55.350;36.906;2023-09-19T18:44:10;49.55;;;29.30;;
76675;SDS011;69204;55.350;36.906;2023-09-19T18:49:11;46.23;;;28.93;;
76675;SDS011;69204;55.350;36.906;2023-09-19T18:54:14;37.85;;;21.88;;
76675;SDS011;69204;55.350;36.906;2023-09-19T18:59:16;34.20;;;21.05;;
76675;SDS011;69204;55.350;36.906;2023-09-19T19:04:21;33.23;;;19.23;;
76675;SDS011;69204;55.350;36.906;2023-09-19T19:09:25;26.00;;;15.68;;
76675;SDS011;69204;55.350;36.906;2023-09-19T19:14:27;26.95;;;17.65;;
76675;SDS011;69204;55.350;36.906;2023-09-19T19:19:28;28.42;;;15.70;;
76675;SDS011;69204;55.350;36.906;2023-09-19T19:24:29;27.45;;;15.85;;
76675;SDS011;69204;55.350;36.906;2023-09-19T19:29:30;27.57;;;15.27;;
76675;SDS011;69204;55.350;36.906;2023-09-19T19:34:31;26.48;;;13.75;;
76675;SDS011;69204;55.350;36.906;2023-09-19T19:39:33;25.85;;;15.25;;
76675;SDS011;69204;55.350;36.906;2023-09-19T19:44:35;23.33;;;14.30;;
76675;SDS011;69204;55.350;36.906;2023-09-19T19:49:36;19.90;;;13.53;;
76675;SDS011;69204;55.350;36.906;2023-09-19T19:54:39;20.15;;;12.63;;
76675;SDS011;69204;55.350;36.906;2023-09-19T19:59:40;20.87;;;11.87;;
76675;SDS011;69204;55.350;36.906;2023-09-19T20:04:41;18.45;;;12.05;;
76675;SDS011;69204;55.350;36.906;2023-09-19T20:09:42;20.37;;;11.87;;
76675;SDS011;69204;55.350;36.906;2023-09-19T20:14:42;17.73;;;11.70;;
76675;SDS011;69204;55.350;36.906;2023-09-19T20:19:43;20.40;;;11.35;;
76675;SDS011;69204;55.350;36.906;2023-09-19T20:24:45;20.83;;;11.25;;
76675;SDS011;69204;55.350;36.906;2023-09-19T20:29:47;17.45;;;11.38;;
76675;SDS011;69204;55.350;36.906;2023-09-19T20:34:48;18.52;;;11.20;;
76675;SDS011;69204;55.350;36.906;2023-09-19T20:39:49;21.17;;;10.93;;
76675;SDS011;69204;55.350;36.906;2023-09-19T20:44:50;21.10;;;10.93;;
76675;SDS011;69204;55.350;36.906;2023-09-19T20:49:50;17.50;;;10.70;;
76675;SDS011;69204;55.350;36.906;2023-09-19T20:54:51;23.20;;;10.83;;
76675;SDS011;69204;55.350;36.906;2023-09-19T20:59:52;17.98;;;10.05;;
76675;SDS011;69204;55.350;36.906;2023-09-19T21:04:53;14.43;;;9.47;;
76675;SDS011;69204;55.350;36.906;2023-09-19T21:10:12;19.85;;;10.68;;
76675;SDS011;69204;55.350;36.906;2023-09-19T21:15:15;16.95;;;9.98;;
76675;SDS011;69204;55.350;36.906;2023-09-19T21:20:18;15.93;;;10.05;;
76675;SDS011;69204;55.350;36.906;2023-09-19T21:25:19;15.57;;;9.85;;
76675;SDS011;69204;55.350;36.906;2023-09-19T21:30:20;16.27;;;9.93;;
76675;SDS011;69204;55.350;36.906;2023-09-19T21:35:21;15.63;;;10.02;;
76675;SDS011;69204;55.350;36.906;2023-09-19T21:40:23;15.33;;;10.67;;
76675;SDS011;69204;55.350;36.906;2023-09-19T21:45:24;19.15;;;10.90;;
76675;SDS011;69204;55.350;36.906;2023-09-19T21:50:25;19.45;;;11.32;;
76675;SDS011;69204;55.350;36.906;2023-09-19T21:55:27;16.23;;;10.27;;
76675;SDS011;69204;55.350;36.906;2023-09-19T22:00:28;20.63;;;10.20;;
76675;SDS011;69204;55.350;36.906;2023-09-19T22:05:38;21.43;;;11.53;;
76675;SDS011;69204;55.350;36.906;2023-09-19T22:15:48;22.38;;;12.27;;
76675;SDS011;69204;55.350;36.906;2023-09-19T22:20:49;18.73;;;10.48;;
76675;SDS011;69204;55.350;36.906;2023-09-19T22:25:52;20.50;;;11.45;;
76675;SDS011;69204;55.350;36.906;2023-09-19T22:30:54;20.40;;;10.90;;
76675;SDS011;69204;55.350;36.906;2023-09-19T22:35:55;22.00;;;11.15;;
76675;SDS011;69204;55.350;36.906;2023-09-19T22:40:57;19.52;;;11.82;;
76675;SDS011;69204;55.350;36.906;2023-09-19T22:46:03;19.08;;;11.43;;
76675;SDS011;69204;55.350;36.906;2023-09-19T22:51:11;20.67;;;11.40;;
76675;SDS011;69204;55.350;36.906;2023-09-19T22:56:14;19.97;;;11.70;;
76675;SDS011;69204;55.350;36.906;2023-09-19T23:01:18;20.45;;;11.35;;
76675;SDS011;69204;55.350;36.906;2023-09-19T23:06:27;23.63;;;12.55;;
76675;SDS011;69204;55.350;36.906;2023-09-19T23:11:30;21.52;;;11.63;;
76675;SDS011;69204;55.350;36.906;2023-09-19T23:16:32;19.90;;;11.20;;
76675;SDS011;69204;55.350;36.906;2023-09-19T23:21:34;20.10;;;12.00;;
76675;SDS011;69204;55.350;36.906;2023-09-19T23:26:36;20.90;;;12.75;;
76675;SDS011;69204;55.350;36.906;2023-09-19T23:31:38;22.85;;;12.32;;
76675;SDS011;69204;55.350;36.906;2023-09-19T23:36:41;20.88;;;12.75;;
76675;SDS011;69204;55.350;36.906;2023-09-19T23:41:43;23.10;;;12.82;;
76675;SDS011;69204;55.350;36.906;2023-09-19T23:46:44;23.70;;;12.53;;
76675;SDS011;69204;55.350;36.906;2023-09-19T23:52:03;22.48;;;12.45;;
76675;SDS011;69204;55.350;36.906;2023-09-19T23:57:06;25.35;;;12.95;;
